createdAt,value
2018-11-05T00:03:31.871Z,8.97
2018-11-05T00:13:10.439Z,7.83
2018-11-05T00:15:48.194Z,7.97
2018-11-05T00:22:17.463Z,8.20
2018-11-05T00:25:00.956Z,8.13
2018-11-05T00:27:34.983Z,8.23
2018-11-05T00:30:11.925Z,8.20
2018-11-05T00:32:41.327Z,7.87
2018-11-05T00:35:18.269Z,8.77
2018-11-05T00:38:01.844Z,8.13
2018-11-05T00:40:41.467Z,8.27
2018-11-05T00:46:56.158Z,8.27
2018-11-05T00:49:31.255Z,7.87
2018-11-05T00:52:28.721Z,8.53
2018-11-05T00:55:09.459Z,8.10
2018-11-05T00:57:38.126Z,7.97
2018-11-05T01:00:58.199Z,8.10
2018-11-05T01:05:29.558Z,8.20
2018-11-05T01:08:04.710Z,8.53
2018-11-05T01:10:59.169Z,8.10
2018-11-05T01:13:33.583Z,7.73
2018-11-05T01:16:02.025Z,7.90
2018-11-05T01:19:00.161Z,7.93
2018-11-05T01:21:29.093Z,8.50
2018-11-05T01:27:05.697Z,8.30
2018-11-05T01:33:04.763Z,8.17
2018-11-05T01:35:35.354Z,7.47
2018-11-05T01:39:26.593Z,7.70
2018-11-05T01:42:05.430Z,7.20
2018-11-05T01:45:00.250Z,8.53
2018-11-05T01:47:30.129Z,7.60
2018-11-05T01:50:25.034Z,7.83
2018-11-05T01:53:04.150Z,9.33
2018-11-05T01:55:39.779Z,9.33
2018-11-05T01:58:11.060Z,8.67
2018-11-05T02:00:45.808Z,9.13
2018-11-05T02:07:00.836Z,9.17
2018-11-05T02:09:30.345Z,9.33
2018-11-05T02:13:20.452Z,9.33
2018-11-05T02:19:22.665Z,11.83
2018-11-05T02:21:52.377Z,11.57
2018-11-05T02:24:54.587Z,10.63
2018-11-05T02:31:26.052Z,11.83
2018-11-05T02:34:18.813Z,11.80
2018-11-05T02:54:06.994Z,13.73
2018-11-05T02:56:35.435Z,13.87
2018-11-05T02:59:04.090Z,14.23
2018-11-05T03:01:32.334Z,14.10
2018-11-05T03:04:11.969Z,14.97
2018-11-05T03:07:05.207Z,13.87
2018-11-05T03:09:39.975Z,13.10
2018-11-05T03:12:18.564Z,13.07
2018-11-05T03:14:52.995Z,12.37
2018-11-05T03:17:23.118Z,13.17
2018-11-05T03:19:51.639Z,12.87
2018-11-05T03:25:31.013Z,13.70
2018-11-05T03:28:00.033Z,12.93
2018-11-05T03:30:29.361Z,13.37
2018-11-05T03:32:58.713Z,12.80
2018-11-05T03:35:28.682Z,12.77
2018-11-05T03:37:58.233Z,12.03
2018-11-05T03:40:48.479Z,12.33
2018-11-05T03:43:17.858Z,12.37
2018-11-05T03:45:47.083Z,11.70
2018-11-05T03:48:16.238Z,11.60
2018-11-05T03:50:44.457Z,11.77
2018-11-05T03:53:12.903Z,11.47
2018-11-05T03:58:29.240Z,12.20
2018-11-05T04:00:57.412Z,12.67
2018-11-05T04:03:25.587Z,10.97
2018-11-05T04:06:11.344Z,11.77
2018-11-05T04:08:40.380Z,11.73
2018-11-05T04:11:08.641Z,11.90
2018-11-05T04:13:37.412Z,11.90
2018-11-05T04:16:07.656Z,11.67
2018-11-05T04:18:36.078Z,11.33
2018-11-05T04:21:11.769Z,11.73
2018-11-05T04:23:40.216Z,11.67
2018-11-05T04:29:05.252Z,10.97
2018-11-05T04:31:38.851Z,11.23
2018-11-05T04:39:56.304Z,10.63
2018-11-05T04:42:26.721Z,10.30
2018-11-05T04:44:55.559Z,10.03
2018-11-05T04:47:26.681Z,9.30
2018-11-05T04:49:55.802Z,9.50
2018-11-05T04:52:25.353Z,9.23
2018-11-05T04:55:01.005Z,10.00
2018-11-05T04:57:29.256Z,9.20
2018-11-05T05:02:54.252Z,9.67
2018-11-05T05:05:23.232Z,9.10
2018-11-05T05:07:51.991Z,9.17
2018-11-05T05:10:36.095Z,9.83
2018-11-05T05:13:04.882Z,10.63
2018-11-05T05:15:41.665Z,9.50
2018-11-05T05:18:10.481Z,9.97
2018-11-05T05:20:45.844Z,9.43
2018-11-05T05:23:18.354Z,9.27
2018-11-05T05:25:55.140Z,9.63
2018-11-05T05:28:24.044Z,9.60
2018-11-05T05:30:52.316Z,9.43
2018-11-05T06:12:07.479Z,11.00
2018-11-05T06:14:35.779Z,10.37
2018-11-05T06:17:04.141Z,9.97
2018-11-05T06:19:32.286Z,10.50
2018-11-05T06:22:00.647Z,10.70
2018-11-05T06:24:28.735Z,9.83
2018-11-05T06:26:57.251Z,9.80
2018-11-05T06:29:25.535Z,9.53
2018-11-05T06:31:53.699Z,9.40
2018-11-05T06:34:23.070Z,9.30
2018-11-05T06:36:52.381Z,9.47
2018-11-05T06:39:20.614Z,10.00
2018-11-05T06:41:48.797Z,10.53
2018-11-05T06:44:18.014Z,10.87
2018-11-05T06:46:46.032Z,10.47
2018-11-05T06:49:14.253Z,11.27
2018-11-05T06:51:42.680Z,10.23
2018-11-05T06:54:10.863Z,9.20
2018-11-05T06:56:39.056Z,9.80
2018-11-05T06:59:07.328Z,10.13
2018-11-05T07:01:35.472Z,10.20
2018-11-05T07:04:03.711Z,10.10
2018-11-05T07:06:32.353Z,10.53
2018-11-05T07:09:13.821Z,10.57
2018-11-05T07:11:41.868Z,10.00
2018-11-05T07:14:09.958Z,10.70
2018-11-05T07:16:38.380Z,10.63
2018-11-05T07:19:08.829Z,11.70
2018-11-05T07:21:36.694Z,9.60
2018-11-05T07:24:06.880Z,11.33
2018-11-05T07:26:35.124Z,10.53
2018-11-05T07:29:07.251Z,10.70
2018-11-05T07:31:35.647Z,10.43
2018-11-05T07:34:04.003Z,10.07
2018-11-05T07:36:32.077Z,10.30
2018-11-05T07:39:06.244Z,10.97
2018-11-05T07:41:34.333Z,11.23
2018-11-05T07:44:02.462Z,11.03
2018-11-05T07:46:31.365Z,13.73
2018-11-05T07:48:59.584Z,12.40
2018-11-05T07:51:27.883Z,12.03
2018-11-05T07:53:57.513Z,11.87
2018-11-05T07:56:33.107Z,9.83
2018-11-05T07:59:01.815Z,9.37
2018-11-05T08:01:34.984Z,9.43
2018-11-05T08:04:03.980Z,9.77
2018-11-05T08:19:41.929Z,9.83
2018-11-05T08:22:31.206Z,11.40
2018-11-05T08:25:14.854Z,11.27
2018-11-05T09:01:10.147Z,13.07
2018-11-05T09:03:38.491Z,12.43
2018-11-05T09:06:06.946Z,11.37
2018-11-05T09:08:34.960Z,10.53
2018-11-05T09:11:03.583Z,10.43
2018-11-05T09:13:31.488Z,11.30
2018-11-05T09:15:59.657Z,10.27
2018-11-05T09:18:27.687Z,10.33
2018-11-05T09:20:55.907Z,9.47
2018-11-05T09:23:24.029Z,8.57
2018-11-05T09:25:52.175Z,9.10
2018-11-05T09:28:23.505Z,9.57
2018-11-05T09:33:38.404Z,10.63
2018-11-05T09:36:09.295Z,11.00
2018-11-05T09:38:37.748Z,18.73
2018-11-05T09:41:08.156Z,17.20
2018-11-05T09:43:37.101Z,17.67
2018-11-05T09:46:06.545Z,16.67
2018-11-05T09:48:36.495Z,17.37
2018-11-05T09:51:04.672Z,16.10
2018-11-05T09:53:33.010Z,15.97
2018-11-05T09:56:01.327Z,15.03
2018-11-05T09:58:29.673Z,13.97
2018-11-05T10:00:57.968Z,13.13
2018-11-05T10:03:38.491Z,11.50
2018-11-05T10:06:17.691Z,10.43
2018-11-05T10:08:56.309Z,11.30
2018-11-05T10:11:27.222Z,9.90
2018-11-05T10:14:09.370Z,9.53
2018-11-05T10:16:41.386Z,9.33
2018-11-05T10:19:12.268Z,9.50
2018-11-05T10:21:47.628Z,8.77
2018-11-05T10:24:26.447Z,8.77
2018-11-05T10:27:02.645Z,8.53
2018-11-05T10:29:38.008Z,8.23
2018-11-05T10:32:24.450Z,8.37
2018-11-05T10:34:52.897Z,7.83
2018-11-05T10:37:24.010Z,7.47
2018-11-05T10:39:52.901Z,7.90
2018-11-05T10:42:27.449Z,8.77
2018-11-05T10:44:56.345Z,8.50
2018-11-05T10:47:25.871Z,8.23
2018-11-05T10:53:22.436Z,11.73
2018-11-05T10:55:51.249Z,7.17
2018-11-05T11:01:19.304Z,7.23
2018-11-05T11:03:54.004Z,7.30
2018-11-05T11:06:30.998Z,7.50
2018-11-05T11:08:59.270Z,7.93
2018-11-05T11:11:27.425Z,8.67
2018-11-05T11:13:55.562Z,9.27
2018-11-05T11:16:23.746Z,9.30
2018-11-05T11:18:51.821Z,9.50
2018-11-05T11:21:19.939Z,9.43
2018-11-05T11:23:47.998Z,9.67
2018-11-05T11:26:16.232Z,10.50
2018-11-05T11:28:44.489Z,9.73
2018-11-05T11:31:12.521Z,10.80
2018-11-05T11:33:40.927Z,10.23
2018-11-05T11:36:09.002Z,10.47
2018-11-05T11:38:37.142Z,9.30
2018-11-05T11:41:05.274Z,9.30
2018-11-05T11:43:33.333Z,9.93
2018-11-05T11:46:01.536Z,11.43
2018-11-05T11:48:29.642Z,10.17
2018-11-05T11:50:57.775Z,9.70
2018-11-05T11:53:26.070Z,9.20
2018-11-05T11:55:57.767Z,9.87
2018-11-05T11:58:25.910Z,9.37
2018-11-05T12:00:54.023Z,8.47
2018-11-05T12:03:22.086Z,8.40
2018-11-05T12:05:50.274Z,7.90
2018-11-05T12:08:18.388Z,7.63
2018-11-05T12:10:46.883Z,7.93
2018-11-05T12:13:15.083Z,8.33
2018-11-05T12:15:43.190Z,8.37
2018-11-05T12:18:11.393Z,8.70
2018-11-05T12:20:39.515Z,8.90
2018-11-05T12:23:07.582Z,9.03
2018-11-05T12:25:35.664Z,9.17
2018-11-05T12:28:03.779Z,10.57
2018-11-05T12:30:31.846Z,10.37
2018-11-05T12:32:59.929Z,10.30
2018-11-05T12:35:28.035Z,10.23
2018-11-05T12:37:56.149Z,9.90
2018-11-05T12:40:24.318Z,10.40
2018-11-05T12:42:52.574Z,10.50
2018-11-05T12:45:20.597Z,10.00
2018-11-05T12:47:49.066Z,11.70
2018-11-05T12:50:24.318Z,12.30
2018-11-05T12:52:53.605Z,13.10
2018-11-05T12:55:21.731Z,12.90
2018-11-05T12:57:49.809Z,13.10
2018-11-05T13:00:20.446Z,12.40
2018-11-05T13:02:52.638Z,13.70
2018-11-05T13:05:20.797Z,16.10
2018-11-05T13:07:48.847Z,24.23
2018-11-05T13:10:16.935Z,22.77
2018-11-05T13:12:44.999Z,21.70
2018-11-05T13:15:13.162Z,23.60
2018-11-05T13:17:41.774Z,20.53
2018-11-05T13:20:11.618Z,22.00
2018-11-05T13:22:39.984Z,21.37
2018-11-05T13:25:08.041Z,21.37
2018-11-05T13:27:36.111Z,21.40
2018-11-05T13:30:05.302Z,19.07
2018-11-05T13:32:33.487Z,17.17
2018-11-05T13:35:01.675Z,12.40
2018-11-05T13:37:29.981Z,11.70
2018-11-05T13:39:58.027Z,11.50
2018-11-05T13:42:26.203Z,11.83
2018-11-05T13:44:54.342Z,11.43
2018-11-05T13:47:24.253Z,13.73
2018-11-05T13:49:52.457Z,11.53
2018-11-05T13:52:22.156Z,11.90
2018-11-05T13:54:50.814Z,11.27
2018-11-05T13:57:18.648Z,14.93
2018-11-05T13:59:49.802Z,17.20
2018-11-05T14:02:25.321Z,11.83
2018-11-05T14:04:57.129Z,11.50
2018-11-05T14:07:25.747Z,11.33
2018-11-05T14:09:53.843Z,10.83
2018-11-05T14:12:21.935Z,11.20
2018-11-05T14:14:49.989Z,9.53
2018-11-05T14:17:18.126Z,11.27
2018-11-05T14:20:01.099Z,10.97
2018-11-05T14:22:35.427Z,11.23
2018-11-05T14:25:10.874Z,10.93
2018-11-05T14:27:45.505Z,10.27
2018-11-05T14:30:21.791Z,11.00
2018-11-05T14:33:01.949Z,11.70
2018-11-05T14:35:50.992Z,10.87
2018-11-05T14:38:19.492Z,10.80
2018-11-05T14:40:50.529Z,10.67
2018-11-05T14:43:20.048Z,11.20
2018-11-05T14:45:48.369Z,10.77
2018-11-05T14:48:16.509Z,11.53
2018-11-05T14:50:44.766Z,11.60
2018-11-05T14:53:12.909Z,10.23
2018-11-05T14:55:41.008Z,10.80
2018-11-05T14:58:15.203Z,10.63
2018-11-05T15:00:43.417Z,13.20
2018-11-05T15:03:11.480Z,10.80
2018-11-05T15:05:39.582Z,11.10
2018-11-05T15:08:07.663Z,10.83
2018-11-05T15:10:36.177Z,11.13
2018-11-05T15:13:04.352Z,10.93
2018-11-05T15:15:32.415Z,11.43
2018-11-05T15:18:00.533Z,13.00
2018-11-05T15:20:28.592Z,11.80
2018-11-05T15:22:56.758Z,12.97
2018-11-05T15:25:24.845Z,12.63
2018-11-05T15:27:52.885Z,13.00
2018-11-05T15:30:22.327Z,12.10
2018-11-05T15:32:57.196Z,12.90
2018-11-05T15:35:25.331Z,13.13
2018-11-05T15:37:53.442Z,11.00
2018-11-05T15:40:22.155Z,11.97
2018-11-05T15:42:50.253Z,11.70
2018-11-05T15:45:21.710Z,10.23
2018-11-05T15:47:55.153Z,10.07
2018-11-05T15:50:23.240Z,10.77
2018-11-05T15:52:51.608Z,10.40
2018-11-05T15:55:25.265Z,9.93
2018-11-05T15:57:56.692Z,11.47
2018-11-05T16:00:25.517Z,11.43
2018-11-05T16:02:56.915Z,10.77
2018-11-05T16:05:26.002Z,10.93
2018-11-05T16:07:54.121Z,10.87
2018-11-05T16:10:22.469Z,11.33
2018-11-05T16:12:51.690Z,13.40
2018-11-05T16:15:19.763Z,12.20
2018-11-05T16:17:47.842Z,11.80
2018-11-05T16:20:22.683Z,12.87
2018-11-05T16:22:51.590Z,12.00
2018-11-05T16:25:19.888Z,12.00
2018-11-05T16:27:48.155Z,12.23
2018-11-05T16:30:17.792Z,13.07
2018-11-05T16:32:46.744Z,14.20
2018-11-05T16:35:14.920Z,15.33
2018-11-05T16:37:43.124Z,16.27
2018-11-05T16:40:13.255Z,15.23
2018-11-05T16:42:41.839Z,14.00
2018-11-05T16:45:11.393Z,15.70
2018-11-05T16:47:40.164Z,16.47
2018-11-05T16:50:10.152Z,14.90
2018-11-05T16:52:38.333Z,15.37
2018-11-05T16:55:07.234Z,14.23
2018-11-05T16:57:35.824Z,14.60
2018-11-05T17:00:04.000Z,14.80
2018-11-05T17:02:32.396Z,15.20
2018-11-05T17:05:00.536Z,15.67
2018-11-05T17:07:28.725Z,14.97
2018-11-05T17:09:57.034Z,15.03
2018-11-05T17:12:37.099Z,15.67
2018-11-05T17:15:06.596Z,15.97
2018-11-05T17:17:35.072Z,16.03
2018-11-05T17:20:03.267Z,16.27
2018-11-05T17:22:31.736Z,16.03
2018-11-05T17:25:00.140Z,15.03
2018-11-05T17:27:28.608Z,16.03
2018-11-05T17:29:57.047Z,17.40
2018-11-05T17:32:26.377Z,16.70
2018-11-05T17:34:54.729Z,16.53
2018-11-05T17:37:39.947Z,17.60
2018-11-05T17:40:10.072Z,17.17
2018-11-05T17:42:38.668Z,21.73
2018-11-05T17:45:07.463Z,23.50
2018-11-05T17:47:35.867Z,31.83
2018-11-05T17:50:04.328Z,18.73
2018-11-05T17:52:32.480Z,67.33
2018-11-05T17:55:00.943Z,64.30
2018-11-05T17:57:29.129Z,36.83
2018-11-05T17:59:57.212Z,36.43
2018-11-05T18:02:25.901Z,22.00
2018-11-05T18:04:55.759Z,32.83
2018-11-05T18:07:25.142Z,34.38
2018-11-05T18:09:59.836Z,24.90
2018-11-05T18:12:28.123Z,20.30
2018-11-05T18:14:56.603Z,23.13
2018-11-05T18:17:24.996Z,21.67
2018-11-05T18:19:55.363Z,22.93
2018-11-05T18:22:24.994Z,18.73
2018-11-05T18:24:53.240Z,19.63
2018-11-05T18:27:21.700Z,21.60
2018-11-05T18:29:49.984Z,24.67
2018-11-05T18:32:19.584Z,25.07
2018-11-05T18:34:49.243Z,24.70
2018-11-05T18:37:17.565Z,25.10
2018-11-05T18:39:46.455Z,20.67
2018-11-05T18:42:19.477Z,20.67
2018-11-05T18:44:54.460Z,20.60
2018-11-05T18:47:25.999Z,20.60
2018-11-05T18:49:54.940Z,19.03
2018-11-05T18:52:28.799Z,18.97
2018-11-05T18:55:04.845Z,18.67
2018-11-05T18:57:34.071Z,18.03
2018-11-05T19:00:05.089Z,17.37
2018-11-05T19:02:35.682Z,16.47
2018-11-05T19:05:04.934Z,16.87
2018-11-05T19:07:33.035Z,17.00
2018-11-05T19:10:01.493Z,16.67
2018-11-05T19:12:30.772Z,16.27
2018-11-05T19:15:00.389Z,15.80
2018-11-05T19:17:31.502Z,15.67
2018-11-05T19:20:00.632Z,18.80
2018-11-05T19:22:28.848Z,17.47
2018-11-05T19:24:56.978Z,16.07
2018-11-05T19:27:25.086Z,15.53
2018-11-05T19:29:55.210Z,14.87
2018-11-05T19:32:23.852Z,14.37
2018-11-05T19:35:05.762Z,14.73
2018-11-05T19:37:35.026Z,15.30
2018-11-05T19:40:13.650Z,16.00
2018-11-05T19:42:51.648Z,16.23
2018-11-05T19:45:21.166Z,15.33
2018-11-05T19:47:49.331Z,15.00
2018-11-05T19:50:18.943Z,13.93
2018-11-05T19:55:33.178Z,13.87
2018-11-05T19:58:03.262Z,14.07
2018-11-05T20:00:32.619Z,14.40
2018-11-05T20:03:13.315Z,13.57
2018-11-05T20:05:42.880Z,14.93
2018-11-05T20:08:11.917Z,13.83
2018-11-05T20:10:40.071Z,14.53
2018-11-05T20:13:08.075Z,13.27
2018-11-05T20:15:41.603Z,13.70
2018-11-05T20:18:14.201Z,13.40
2018-11-05T20:20:47.088Z,12.83
2018-11-05T20:23:15.342Z,12.60
2018-11-05T20:25:46.541Z,12.60
2018-11-05T20:28:14.751Z,12.53
2018-11-05T20:30:48.444Z,13.00
2018-11-05T20:33:17.076Z,12.57
2018-11-05T20:35:45.212Z,12.40
2018-11-05T20:38:13.485Z,13.53
2018-11-05T20:40:53.471Z,13.27
2018-11-05T20:43:25.531Z,11.90
2018-11-05T20:45:57.109Z,14.07
2018-11-05T20:48:25.585Z,12.50
2018-11-05T20:50:53.996Z,11.70
2018-11-05T20:53:28.197Z,11.27
2018-11-05T20:55:59.585Z,11.80
2018-11-05T20:58:27.791Z,12.37
2018-11-05T21:00:58.147Z,10.77
2018-11-05T21:03:26.528Z,11.07
2018-11-05T21:05:54.666Z,9.77
2018-11-05T21:08:23.997Z,10.10
2018-11-05T21:10:52.212Z,9.23
2018-11-05T21:13:20.337Z,8.97
2018-11-05T21:15:48.435Z,9.03
2018-11-05T21:18:16.701Z,8.73
2018-11-05T21:20:44.801Z,7.90
2018-11-05T21:23:12.770Z,8.10
2018-11-05T21:25:40.895Z,7.50
2018-11-05T21:28:09.347Z,7.17
2018-11-05T21:30:37.407Z,7.00
2018-11-05T21:33:11.359Z,6.00
2018-11-05T21:35:39.471Z,5.50
2018-11-05T21:38:08.382Z,5.60
2018-11-05T21:40:38.239Z,5.60
2018-11-05T21:43:06.342Z,6.00
2018-11-05T21:45:34.479Z,6.00
2018-11-05T21:48:03.433Z,7.40
2018-11-05T21:50:31.518Z,7.30
2018-11-05T21:52:59.602Z,7.40
2018-11-05T21:55:27.634Z,6.90
2018-11-05T21:57:55.683Z,7.57
2018-11-05T22:00:24.818Z,8.20
2018-11-05T22:02:58.257Z,7.13
2018-11-05T22:05:26.893Z,6.83
2018-11-05T22:07:54.990Z,6.07
2018-11-05T22:10:23.094Z,5.30
2018-11-05T22:12:51.145Z,6.00
2018-11-05T22:15:19.353Z,6.03
2018-11-05T22:17:50.865Z,6.03
2018-11-05T22:20:18.968Z,6.33
2018-11-05T22:22:47.227Z,6.40
2018-11-05T22:25:15.277Z,7.10
2018-11-05T22:27:43.436Z,7.07
2018-11-05T22:30:11.836Z,6.90
2018-11-05T22:32:39.855Z,6.50
2018-11-05T22:35:07.905Z,7.53
2018-11-05T22:37:36.041Z,7.33
2018-11-05T22:40:05.236Z,7.10
2018-11-05T22:42:47.654Z,7.70
2018-11-05T22:45:15.788Z,7.50
2018-11-05T22:47:44.717Z,7.17
2018-11-05T22:50:12.875Z,6.90
2018-11-05T22:52:41.603Z,7.40
2018-11-05T22:55:09.887Z,6.67
2018-11-05T22:57:38.333Z,7.00
2018-11-05T23:00:08.449Z,5.90
2018-11-05T23:02:36.416Z,6.00
2018-11-05T23:05:04.769Z,6.00
2018-11-05T23:07:32.812Z,6.13
2018-11-05T23:10:00.894Z,5.93
2018-11-05T23:12:29.114Z,5.60
2018-11-05T23:14:57.217Z,6.00
2018-11-05T23:17:25.373Z,6.13
2018-11-05T23:19:53.405Z,6.30
2018-11-05T23:22:23.574Z,6.47
2018-11-05T23:24:51.637Z,6.50
2018-11-05T23:27:19.697Z,6.43
2018-11-05T23:29:47.738Z,5.93
2018-11-05T23:32:15.789Z,6.63
2018-11-05T23:34:43.847Z,7.20
2018-11-05T23:37:11.902Z,8.20
2018-11-05T23:39:39.942Z,8.77
2018-11-05T23:42:08.088Z,11.20
2018-11-05T23:44:36.322Z,9.53
2018-11-05T23:47:04.364Z,8.67
2018-11-05T23:49:32.570Z,9.30
2018-11-05T23:52:00.682Z,7.43
2018-11-05T23:54:28.946Z,7.50
2018-11-05T23:56:56.994Z,7.50
2018-11-05T23:59:25.078Z,7.50
